Terminal Aerodrome Forecast
Issued by NWS Spokane, WA

Home | Current Version | Previous Version | Text Only | Print | Product List | Glossary On
Versions: 1 2 3 4 5 6 7 8 9 10 11 12 13 14 15 16 17 18 19 20 21 22 23 24 25 26 27 28 29
000
FTUS46 KOTX 281735
TAFLWS
TAF
KLWS 281735Z 2818/2918 VRB03KT P6SM VCSH BKN040 OVC100
     FM282000 VRB03KT P6SM VCSH BKN040 OVC060
     FM290500 VRB03KT 5SM -SN OVC025
     FM291200 08005KT P6SM SCT040 BKN100=

USA.gov is the U.S. government's official web portal to all federal, state and local government web resources and services.